Time;durP1;ratioP1;P1;durP2;ratioP2;P2;SDS_P1;SDS_P2;PMS_P1;PMS_P2;Temp;Humidity;BMP_temperature;BMP_pressure;BME280_temperature;BME280_humidity;BME280_pressure;Samples;Min_cycle;Max_cycle;Signal;HPM_P1;HPM_P2
2022/04/15 00:00:33;;;;;;;23.30;10.48;;;;;;;23.48;59.73;97701.94;4911338;29;20052;-68
2022/04/15 00:03:21;;;;;;;23.60;10.52;;;;;;;23.39;61.83;97705.47;4918391;29;20736;-67
2022/04/15 00:06:08;;;;;;;24.52;9.80;;;;;;;23.38;60.52;97712.56;4918340;29;20063;-68
2022/04/15 00:08:57;;;;;;;22.95;9.35;;;;;;;23.29;61.45;97718.72;4916335;29;20052;-67
2022/04/15 00:11:39;;;;;;;17.65;8.80;;;;;;;23.41;65.43;97724.56;4912622;29;20058;-68
2022/04/15 00:14:27;;;;;;;23.05;9.40;;;;;;;23.58;66.33;97726.41;4915656;29;20532;-69
2022/04/15 00:17:10;;;;;;;17.40;9.27;;;;;;;23.64;65.03;97731.06;4907466;29;20059;-67
2022/04/15 00:19:58;;;;;;;18.77;9.95;;;;;;;23.53;61.48;97749.72;4903831;29;20155;-68
2022/04/15 00:22:41;;;;;;;24.98;11.65;;;;;;;23.40;64.90;97750.03;4905719;29;20067;-68
2022/04/15 00:25:35;;;;;;;28.27;11.35;;;;;;;23.37;66.76;97760.84;4910030;29;20364;-66
2022/04/15 00:28:11;;;;;;;24.75;10.35;;;;;;;23.35;68.40;97769.88;4908609;29;20055;-68
2022/04/15 00:30:59;;;;;;;28.20;10.65;;;;;;;23.16;65.18;97768.16;4899204;29;20063;-68
2022/04/15 00:33:42;;;;;;;20.23;10.07;;;;;;;23.21;67.18;97774.66;4910528;28;20055;-68
2022/04/15 00:36:30;;;;;;;24.48;11.05;;;;;;;23.29;67.01;97773.91;4910123;29;20107;-68
2022/04/15 00:39:13;;;;;;;24.77;10.38;;;;;;;23.28;68.35;97772.25;4907710;29;20048;-67
2022/04/15 00:42:02;;;;;;;44.63;11.90;;;;;;;23.17;66.43;97770.66;4908614;29;20132;-68
2022/04/15 00:44:44;;;;;;;23.40;12.55;;;;;;;23.17;66.83;97781.16;4909514;29;20044;-67
2022/04/15 00:47:53;;;;;;;21.83;11.85;;;;;;;23.31;68.70;97798.22;4906309;29;20056;-68
2022/04/15 00:50:38;;;;;;;31.60;12.25;;;;;;;23.22;67.67;97823.63;4891841;29;20660;-69
2022/04/15 00:53:29;;;;;;;30.48;11.75;;;;;;;23.14;68.76;97839.28;4906179;29;20115;-68
2022/04/15 00:56:11;;;;;;;20.50;9.80;;;;;;;23.16;67.79;97832.06;4910234;29;20044;-68
2022/04/15 00:59:01;;;;;;;25.35;10.13;;;;;;;23.22;70.62;97815.75;4896518;29;20048;-68
2022/04/15 01:01:43;;;;;;;20.00;10.85;;;;;;;23.39;69.72;97821.16;4902936;29;20051;-68
2022/04/15 01:04:39;;;;;;;38.05;19.98;;;;;;;23.55;68.27;97837.97;4910116;29;20139;-69
2022/04/15 01:07:19;;;;;;;62.63;31.77;;;;;;;23.56;68.16;97857.22;4910560;29;20773;-68
2022/04/15 01:10:10;;;;;;;76.88;38.83;;;;;;;23.55;64.83;97852.91;4909465;29;20068;-68
2022/04/15 01:13:02;;;;;;;110.22;52.55;;;;;;;23.64;64.11;97846.78;4909785;29;20056;-68
2022/04/15 01:16:06;;;;;;;118.43;57.65;;;;;;;23.65;62.04;97832.66;4910218;29;20111;-68
2022/04/15 01:18:55;;;;;;;128.30;61.15;;;;;;;23.73;59.00;97818.75;4896697;29;20055;-68
2022/04/15 01:21:38;;;;;;;111.15;56.58;;;;;;;23.80;60.81;97794.31;4898238;29;20143;-68
2022/04/15 01:24:27;;;;;;;117.13;54.80;;;;;;;23.89;61.81;97796.06;4906273;29;20056;-68
2022/04/15 01:27:10;;;;;;;103.68;50.33;;;;;;;23.85;59.90;97784.19;4905073;29;20060;-68
2022/04/15 01:29:58;;;;;;;99.05;48.17;;;;;;;23.89;59.83;97767.13;4891409;29;20056;-69
2022/04/15 01:32:41;;;;;;;105.45;48.13;;;;;;;23.91;61.28;97765.16;4891092;29;20048;-68
2022/04/15 01:35:37;;;;;;;102.38;47.67;;;;;;;23.93;58.27;97752.69;4890662;29;20053;-68
2022/04/15 01:38:14;;;;;;;111.18;48.85;;;;;;;24.01;62.19;97758.03;4908998;29;20079;-68
2022/04/15 01:41:03;;;;;;;110.30;49.53;;;;;;;24.11;62.19;97764.97;4923918;29;20675;-67
2022/04/15 01:43:46;;;;;;;100.88;47.95;;;;;;;24.14;61.30;97768.13;4928850;29;20758;-68
2022/04/15 01:46:41;;;;;;;100.85;44.22;;;;;;;24.07;59.53;97784.69;4920100;29;20051;-66
2022/04/15 01:49:16;;;;;;;104.85;42.97;;;;;;;24.06;60.81;97788.31;4908718;29;20067;-66
2022/04/15 01:52:12;;;;;;;86.45;42.10;;;;;;;24.11;61.63;97796.56;4910011;29;20514;-66
2022/04/15 01:54:47;;;;;;;100.28;42.95;;;;;;;24.00;57.86;97802.91;4908829;29;20048;-66
2022/04/15 01:57:43;;;;;;;105.93;45.38;;;;;;;23.98;57.52;97796.97;4887904;29;20081;-67
2022/04/15 02:00:18;;;;;;;95.53;42.40;;;;;;;24.03;59.47;97792.88;4885527;29;20812;-67
2022/04/15 02:03:07;;;;;;;95.32;42.60;;;;;;;24.28;60.96;97801.00;4905406;29;20154;-65
2022/04/15 02:05:57;;;;;;;100.30;44.00;;;;;;;24.45;55.04;97799.31;4892320;29;20055;-68
2022/04/15 02:08:38;;;;;;;104.35;42.40;;;;;;;24.70;52.67;97811.66;4889009;29;20557;-68
2022/04/15 02:11:28;;;;;;;99.80;41.42;;;;;;;24.98;52.59;97830.78;4888886;29;20057;-68
2022/04/15 02:14:10;;;;;;;109.00;42.25;;;;;;;25.18;56.69;97842.75;4889251;29;20064;-67
2022/04/15 02:16:59;;;;;;;108.63;40.65;;;;;;;25.38;56.46;97867.06;4909940;29;20064;-69
2022/04/15 02:19:40;;;;;;;99.90;42.40;;;;;;;25.88;56.07;97885.53;4914073;29;20143;-69
2022/04/15 02:22:30;;;;;;;87.15;38.25;;;;;;;26.21;51.17;97883.78;4910643;29;20052;-68
2022/04/15 02:25:11;;;;;;;87.63;37.78;;;;;;;26.16;49.61;97894.84;4903577;29;20131;-68
2022/04/15 02:28:01;;;;;;;77.07;35.67;;;;;;;26.02;56.29;97881.47;4910281;29;20064;-67
2022/04/15 02:30:42;;;;;;;76.65;33.53;;;;;;;26.14;60.35;97875.69;4908750;29;20064;-67
2022/04/15 02:33:31;;;;;;;68.07;30.95;;;;;;;26.44;53.82;97876.88;4908473;28;20052;-67
2022/04/15 02:36:19;;;;;;;70.95;25.27;;;;;;;26.70;51.81;97887.28;4909124;29;20066;-67
2022/04/15 02:39:02;;;;;;;64.40;26.48;;;;;;;27.06;50.57;97903.59;4910521;29;20052;-66
2022/04/15 02:41:52;;;;;;;61.78;23.83;;;;;;;27.47;51.40;97917.50;4909786;29;20055;-67
2022/04/15 02:44:35;;;;;;;60.20;22.27;;;;;;;27.61;51.56;97934.56;4907712;29;20687;-70
2022/04/15 02:47:30;;;;;;;52.10;20.23;;;;;;;27.47;50.29;97951.09;4908459;29;20056;-68
2022/04/15 02:50:05;;;;;;;49.13;20.35;;;;;;;27.32;51.98;97950.97;4910075;29;20056;-68
2022/04/15 02:52:54;;;;;;;65.20;26.48;;;;;;;27.30;50.26;97952.94;4911219;29;20044;-67
2022/04/15 02:55:43;;;;;;;93.85;40.00;;;;;;;27.31;48.31;97949.31;4911602;29;20652;-68
2022/04/15 02:58:32;;;;;;;110.15;47.60;;;;;;;27.51;46.30;97950.59;4911208;29;20075;-67
2022/04/15 03:01:20;;;;;;;108.13;49.25;;;;;;;27.74;50.51;97940.94;4915959;29;20055;-67
2022/04/15 03:04:02;;;;;;;90.22;44.08;;;;;;;27.78;51.98;97931.63;4912704;29;20052;-68
2022/04/15 03:06:52;;;;;;;86.00;42.92;;;;;;;28.03;51.73;97939.47;4893610;29;20087;-68
2022/04/15 03:09:33;;;;;;;80.68;37.08;;;;;;;27.76;45.77;97944.25;4910506;29;20052;-67
2022/04/15 03:12:23;;;;;;;76.70;35.63;;;;;;;27.82;46.71;97936.59;4911714;29;20059;-68
2022/04/15 03:15:09;;;;;;;77.80;35.75;;;;;;;27.98;49.53;97931.22;4894663;29;20048;-68
2022/04/15 03:17:56;;;;;;;75.68;35.38;;;;;;;28.11;45.82;97939.41;4913774;29;20048;-68
2022/04/15 03:20:38;;;;;;;75.57;33.47;;;;;;;28.15;48.42;97927.47;4890444;29;20484;-68
2022/04/15 03:23:28;;;;;;;77.88;33.58;;;;;;;28.25;46.04;97922.00;4914971;29;20064;-68
2022/04/15 03:26:16;;;;;;;80.72;33.10;;;;;;;28.45;45.60;97926.63;4911445;29;20107;-67
2022/04/15 03:29:05;;;;;;;64.25;33.10;;;;;;;28.72;43.88;97921.78;4911631;29;20082;-67
2022/04/15 03:31:59;;;;;;;68.38;33.53;;;;;;;28.69;46.26;97915.00;4911212;29;20044;-68
2022/04/15 03:34:41;;;;;;;64.95;31.58;;;;;;;29.02;48.45;97904.13;4906220;28;20052;-68
2022/04/15 03:37:32;;;;;;;63.85;31.05;;;;;;;29.10;43.62;97907.50;4909743;29;20139;-68
2022/04/15 03:40:14;;;;;;;68.25;32.05;;;;;;;29.26;43.49;97907.34;4922585;29;20051;-68
2022/04/15 03:43:04;;;;;;;71.90;29.00;;;;;;;29.44;45.36;97907.00;4930424;29;20048;-68
2022/04/15 03:45:46;;;;;;;69.30;26.63;;;;;;;29.26;42.89;97903.88;4915342;29;20062;-68
2022/04/15 03:48:36;;;;;;;49.42;25.63;;;;;;;29.31;43.73;97902.28;4896423;29;20058;-68
2022/04/15 03:51:17;;;;;;;49.50;22.77;;;;;;;29.94;41.20;97908.03;4896919;29;20528;-68
2022/04/15 03:54:06;;;;;;;40.83;19.90;;;;;;;30.04;42.14;97906.72;4900457;29;20131;-68
2022/04/15 03:56:48;;;;;;;41.22;17.00;;;;;;;29.92;40.75;97902.91;4921028;29;20067;-68
2022/04/15 03:59:37;;;;;;;42.28;14.85;;;;;;;30.38;43.16;97906.06;4901094;29;20052;-68
2022/04/15 04:02:26;;;;;;;43.60;14.57;;;;;;;30.38;39.99;97911.38;4911121;29;20479;-67
2022/04/15 04:05:09;;;;;;;61.60;14.80;;;;;;;30.57;41.67;97917.09;4900863;29;20067;-67
2022/04/15 04:08:04;;;;;;;31.20;12.77;;;;;;;31.01;42.52;97920.31;4919062;29;20071;-67
2022/04/15 04:10:39;;;;;;;41.03;13.32;;;;;;;31.46;40.47;97929.63;4907555;29;20064;-67
2022/04/15 04:13:27;;;;;;;39.78;14.25;;;;;;;30.70;37.31;97928.66;4907388;29;20079;-67
2022/04/15 04:16:18;;;;;;;31.17;13.95;;;;;;;31.60;40.17;97932.38;4906567;29;20044;-68
2022/04/15 04:18:59;;;;;;;32.55;13.13;;;;;;;31.95;37.30;97933.97;4905389;29;20043;-69
2022/04/15 04:21:49;;;;;;;41.65;12.68;;;;;;;32.16;38.92;97933.88;4909649;29;20055;-68
2022/04/15 04:24:31;;;;;;;27.10;10.98;;;;;;;32.14;36.84;97938.56;4890741;29;20139;-68
2022/04/15 04:27:19;;;;;;;35.05;10.98;;;;;;;32.21;35.11;97939.41;4906618;29;20043;-68
2022/04/15 04:30:12;;;;;;;25.17;10.82;;;;;;;32.43;35.60;97939.25;4904292;29;20143;-65
2022/04/15 04:32:55;;;;;;;24.05;9.68;;;;;;;32.86;34.40;97947.72;4911019;29;20056;-67
2022/04/15 04:35:50;;;;;;;29.83;9.15;;;;;;;33.16;34.80;97942.78;4907510;29;20394;-68
2022/04/15 04:38:25;;;;;;;17.23;7.40;;;;;;;33.23;30.87;97948.94;4908454;29;20052;-66
2022/04/15 04:41:19;;;;;;;22.67;7.28;;;;;;;33.33;32.20;97944.00;4895991;29;20083;-67
2022/04/15 04:43:55;;;;;;;23.73;6.05;;;;;;;33.50;31.04;97952.41;4913671;29;20048;-66
2022/04/15 04:46:50;;;;;;;15.77;5.45;;;;;;;33.78;30.82;97955.63;4906586;29;20127;-67
2022/04/15 04:49:26;;;;;;;22.83;6.45;;;;;;;34.39;30.13;97955.97;4908264;29;20385;-66
2022/04/15 04:52:20;;;;;;;13.07;6.10;;;;;;;34.34;29.77;97958.47;4909942;29;20143;-66
2022/04/15 04:54:56;;;;;;;37.78;6.82;;;;;;;34.35;32.38;97959.28;4908810;29;20052;-65
2022/04/15 04:57:44;;;;;;;20.13;5.95;;;;;;;34.66;32.35;97955.78;4909235;29;20072;-65
2022/04/15 05:00:27;;;;;;;29.25;5.95;;;;;;;34.77;33.58;97950.59;4907428;29;20491;-66
2022/04/15 05:03:21;;;;;;;19.35;5.93;;;;;;;34.54;32.02;97963.72;4906310;29;20504;-65
2022/04/15 05:05:57;;;;;;;16.08;6.40;;;;;;;34.57;30.35;97968.59;4904676;29;20048;-66
2022/04/15 05:08:52;;;;;;;28.00;5.68;;;;;;;35.08;35.03;97955.06;4906937;29;20079;-68
2022/04/15 05:11:27;;;;;;;25.65;5.95;;;;;;;34.23;31.54;97961.84;4885500;29;20048;-68
2022/04/15 05:14:17;;;;;;;18.02;5.72;;;;;;;35.04;30.35;97953.06;4906739;29;20059;-66
2022/04/15 05:16:58;;;;;;;31.55;5.72;;;;;;;34.68;29.27;97953.72;4908844;29;20054;-66
2022/04/15 05:19:47;;;;;;;19.00;5.45;;;;;;;35.08;29.40;97960.41;4901800;29;20116;-67
2022/04/15 05:22:30;;;;;;;12.48;5.10;;;;;;;35.49;30.35;97957.16;4912260;29;20071;-67
2022/04/15 05:25:17;;;;;;;20.25;6.32;;;;;;;35.33;33.81;97967.63;4910740;29;20048;-67
2022/04/15 05:28:07;;;;;;;15.32;5.72;;;;;;;34.60;29.61;97962.00;4910439;29;20048;-67
2022/04/15 05:30:48;;;;;;;20.17;5.03;;;;;;;34.39;29.06;97965.88;4905488;29;20393;-67
2022/04/15 05:33:41;;;;;;;18.23;5.28;;;;;;;35.03;32.11;97957.59;4908285;28;20052;-66
2022/04/15 05:36:22;;;;;;;27.13;6.05;;;;;;;35.18;33.05;97968.78;4909584;29;20136;-66
2022/04/15 05:39:05;;;;;;;17.20;5.03;;;;;;;35.05;31.00;97970.75;4908023;29;20120;-66
2022/04/15 05:41:54;;;;;;;17.67;5.80;;;;;;;35.59;28.88;97972.72;4904967;29;20142;-66
2022/04/15 05:44:42;;;;;;;28.20;5.95;;;;;;;35.46;30.88;97972.84;4908350;29;20056;-67
2022/04/15 05:47:25;;;;;;;13.02;4.75;;;;;;;35.35;33.05;97966.38;4897236;29;20116;-67
2022/04/15 05:50:13;;;;;;;16.33;6.47;;;;;;;35.12;28.51;97971.53;4892201;29;20051;-66
2022/04/15 05:52:56;;;;;;;23.38;5.35;;;;;;;35.23;31.05;97963.59;4908872;29;20048;-67
2022/04/15 05:55:44;;;;;;;17.15;5.18;;;;;;;35.47;30.81;97958.41;4903305;29;20056;-67
2022/04/15 05:58:27;;;;;;;15.13;5.18;;;;;;;35.50;32.89;97957.97;4889915;29;20509;-66
2022/04/15 06:01:16;;;;;;;18.80;5.63;;;;;;;35.68;33.64;97949.91;4907078;29;20052;-67
2022/04/15 06:03:58;;;;;;;22.15;5.45;;;;;;;35.25;30.57;97945.44;4906018;29;20052;-69
2022/04/15 06:06:47;;;;;;;32.25;6.03;;;;;;;34.91;27.55;97948.63;4878200;29;20060;-68
2022/04/15 06:09:30;;;;;;;25.65;5.85;;;;;;;35.33;31.26;97941.66;4908083;29;20051;-68
2022/04/15 06:12:54;;;;;;;19.88;5.55;;;;;;;35.04;34.58;97937.78;4909712;29;20056;-67
2022/04/15 06:15:41;;;;;;;17.00;5.70;;;;;;;35.36;31.19;97937.72;4897339;29;20049;-66
2022/04/15 06:18:34;;;;;;;23.90;6.25;;;;;;;35.16;30.86;97938.72;4898976;29;20636;-65
2022/04/15 06:21:23;;;;;;;23.25;6.35;;;;;;;35.05;30.90;97928.72;4907993;29;20063;-66
2022/04/15 06:24:06;;;;;;;16.90;6.65;;;;;;;34.45;27.98;97933.72;4909211;29;20067;-66
2022/04/15 06:26:56;;;;;;;18.45;6.20;;;;;;;34.86;30.65;97929.72;4893164;29;20056;-66
2022/04/15 06:29:37;;;;;;;14.48;5.88;;;;;;;34.84;28.64;97921.09;4908828;29;20059;-64
2022/04/15 06:32:27;;;;;;;18.30;5.78;;;;;;;35.19;37.93;97908.81;4915921;29;20391;-65
2022/04/15 06:35:08;;;;;;;21.50;5.95;;;;;;;35.03;33.86;97909.38;4914424;29;20124;-64
2022/04/15 06:37:59;;;;;;;22.15;6.45;;;;;;;35.08;34.08;97900.69;4908548;29;20083;-66
2022/04/15 06:40:42;;;;;;;24.33;6.38;;;;;;;34.85;28.99;97901.31;4909067;29;20091;-66
2022/04/15 06:43:30;;;;;;;18.17;6.25;;;;;;;35.05;28.27;97903.78;4915569;29;20054;-67
2022/04/15 06:46:19;;;;;;;21.73;7.07;;;;;;;35.33;40.50;97895.28;4911030;29;20111;-67
2022/04/15 06:49:09;;;;;;;19.30;6.28;;;;;;;34.82;28.73;97889.16;4908945;29;20052;-68
2022/04/15 06:51:50;;;;;;;13.00;5.07;;;;;;;35.21;29.57;97882.59;4910379;29;20048;-65
2022/04/15 06:54:39;;;;;;;20.95;6.05;;;;;;;34.94;28.38;97886.59;4909042;29;20055;-66
2022/04/15 06:57:31;;;;;;;19.35;6.05;;;;;;;34.70;29.64;97882.88;4908099;29;20056;-66
2022/04/15 07:00:13;;;;;;;22.55;5.75;;;;;;;34.66;30.68;97872.81;4907659;29;20044;-67
2022/04/15 07:03:02;;;;;;;18.55;7.47;;;;;;;34.53;30.15;97866.53;4910024;29;20080;-67
2022/04/15 07:05:44;;;;;;;17.73;6.72;;;;;;;34.82;28.93;97869.59;4911928;29;20066;-67
2022/04/15 07:08:27;;;;;;;15.45;5.65;;;;;;;34.94;30.70;97865.19;4910392;29;20108;-67
2022/04/15 07:11:15;;;;;;;29.92;6.53;;;;;;;35.06;34.41;97858.03;4909224;29;20524;-66
2022/04/15 07:14:05;;;;;;;16.95;5.78;;;;;;;35.08;32.42;97865.84;4909399;29;20059;-66
2022/04/15 07:16:46;;;;;;;19.48;6.07;;;;;;;34.61;30.34;97857.41;4910358;29;20068;-66
2022/04/15 07:19:36;;;;;;;15.25;5.35;;;;;;;34.88;31.85;97853.47;4908564;29;20059;-66
2022/04/15 07:22:18;;;;;;;15.23;6.18;;;;;;;34.85;30.64;97847.75;4911752;29;20443;-66
2022/04/15 07:25:07;;;;;;;24.38;6.93;;;;;;;35.02;34.99;97850.69;4903739;29;20059;-65
2022/04/15 07:27:49;;;;;;;14.45;5.75;;;;;;;34.51;26.67;97849.06;4912369;29;20055;-65
2022/04/15 07:30:39;;;;;;;17.25;6.05;;;;;;;34.70;31.80;97839.22;4911788;29;20131;-66
2022/04/15 07:33:20;;;;;;;34.35;5.93;;;;;;;34.76;30.71;97839.19;4911158;29;20070;-67
2022/04/15 07:39:11;;;;;;;21.60;6.28;;;;;;;34.91;36.02;97828.13;4926542;29;20135;-67
2022/04/15 07:42:07;;;;;;;19.17;5.93;;;;;;;35.09;34.90;97821.97;4927903;29;20067;-65
2022/04/15 07:44:44;;;;;;;18.10;5.15;;;;;;;34.75;32.65;97818.00;4926800;29;20166;-64
2022/04/15 07:47:33;;;;;;;16.42;5.68;;;;;;;34.75;29.23;97815.31;4931888;29;20501;-66
2022/04/15 07:50:31;;;;;;;18.45;5.70;;;;;;;34.36;29.56;97817.28;4929359;29;20379;-66
2022/04/15 07:53:19;;;;;;;21.58;7.07;;;;;;;34.62;30.20;97804.72;4928592;29;20115;-66
2022/04/15 07:56:02;;;;;;;27.73;6.77;;;;;;;34.71;33.80;97809.56;4924788;29;20221;-67
2022/04/15 07:58:50;;;;;;;18.48;5.72;;;;;;;34.72;32.09;97805.03;4913570;29;20058;-66
2022/04/15 08:01:33;;;;;;;19.73;5.63;;;;;;;34.85;34.14;97794.22;4929892;29;20047;-69
2022/04/15 08:04:22;;;;;;;27.70;6.63;;;;;;;34.82;30.26;97789.28;4929586;29;20115;-68
2022/04/15 08:07:03;;;;;;;25.85;6.03;;;;;;;34.82;31.79;97794.66;4928755;29;20071;-68
2022/04/15 08:09:52;;;;;;;16.73;5.70;;;;;;;34.70;33.09;97783.84;4925181;29;20055;-68
2022/04/15 08:16:25;;;;;;;21.98;6.15;;;;;;;34.73;31.01;97779.91;4919045;29;20055;-68
2022/04/15 08:19:07;;;;;;;20.50;7.25;;;;;;;34.58;30.87;97771.38;4936926;29;20050;-68
2022/04/15 08:21:56;;;;;;;20.17;6.65;;;;;;;34.44;27.25;97768.84;4942938;29;20051;-66
2022/04/15 08:24:42;;;;;;;26.63;6.65;;;;;;;34.49;27.38;97763.66;4929008;29;20521;-67
2022/04/15 08:27:31;;;;;;;21.55;7.75;;;;;;;34.68;30.87;97755.66;4928251;29;20082;-67
2022/04/15 08:30:13;;;;;;;21.35;7.10;;;;;;;34.72;31.02;97752.28;4927402;29;20419;-66
2022/04/15 08:33:05;;;;;;;26.88;9.40;;;;;;;34.80;30.75;97746.69;4927891;29;20055;-66
2022/04/15 08:36:00;;;;;;;21.10;10.20;;;;;;;34.77;30.21;97740.97;4910395;29;20115;-65
2022/04/15 08:38:55;;;;;;;29.42;10.50;;;;;;;34.79;29.71;97738.88;4908854;29;20055;-66
2022/04/15 08:41:36;;;;;;;39.88;12.27;;;;;;;34.74;30.11;97741.41;4911639;29;20048;-67
2022/04/15 08:44:31;;;;;;;32.47;10.95;;;;;;;34.44;27.21;97741.28;4909459;29;20052;-67
2022/04/15 08:47:08;;;;;;;24.92;11.85;;;;;;;34.51;28.15;97734.81;4908003;29;20432;-66
2022/04/15 08:49:59;;;;;;;24.10;12.52;;;;;;;34.70;31.23;97732.16;4908686;29;20048;-66
2022/04/15 08:52:41;;;;;;;30.88;11.40;;;;;;;34.69;30.17;97731.34;4908278;29;20056;-66
2022/04/15 08:55:30;;;;;;;26.75;12.50;;;;;;;34.28;26.30;97731.13;4907219;29;20060;-68
2022/04/15 08:58:20;;;;;;;31.25;12.38;;;;;;;34.41;28.76;97713.09;4907432;29;20459;-68
2022/04/15 09:01:01;;;;;;;27.17;12.23;;;;;;;34.55;31.07;97708.44;4907688;29;20668;-66
2022/04/15 09:03:51;;;;;;;26.23;11.25;;;;;;;34.59;34.69;97706.13;4909941;29;20119;-68
2022/04/15 09:06:33;;;;;;;26.05;12.13;;;;;;;34.22;29.24;97707.94;4894710;29;20063;-68
2022/04/15 09:09:29;;;;;;;27.42;11.40;;;;;;;34.13;30.26;97694.00;4908426;29;20062;-67
2022/04/15 09:12:16;;;;;;;31.42;12.43;;;;;;;34.15;32.32;97692.78;4914165;29;20433;-67
2022/04/15 09:15:14;;;;;;;28.73;13.45;;;;;;;34.14;30.18;97690.31;4910058;29;20075;-66
2022/04/15 09:17:59;;;;;;;43.03;17.60;;;;;;;34.01;28.10;97691.22;4909039;29;20075;-66
2022/04/15 09:20:47;;;;;;;43.55;17.13;;;;;;;33.95;30.20;97681.41;4908338;29;20133;-66
2022/04/15 09:23:36;;;;;;;35.67;17.08;;;;;;;34.04;30.13;97679.28;4893260;29;20056;-66
2022/04/15 09:26:19;;;;;;;37.85;16.75;;;;;;;34.08;29.18;97683.97;4909717;29;20445;-67
2022/04/15 09:29:07;;;;;;;31.42;15.60;;;;;;;34.06;28.71;97675.38;4908406;29;20052;-66
2022/04/15 09:32:01;;;;;;;38.83;15.82;;;;;;;34.03;28.49;97666.94;4910007;29;20410;-68
2022/04/15 09:34:57;;;;;;;32.50;14.27;;;;;;;34.03;30.98;97672.28;4908601;29;20048;-66
2022/04/15 09:37:49;;;;;;;30.08;13.50;;;;;;;33.95;31.67;97664.56;4909750;29;20051;-67
2022/04/15 09:40:37;;;;;;;27.40;12.90;;;;;;;33.95;30.07;97659.22;4909843;29;20052;-67
2022/04/15 09:43:27;;;;;;;27.80;12.25;;;;;;;33.89;27.71;97657.41;4909405;29;20123;-68
2022/04/15 09:46:15;;;;;;;21.52;11.52;;;;;;;33.89;30.73;97654.75;4910563;29;20484;-67
2022/04/15 09:49:12;;;;;;;29.55;11.02;;;;;;;33.89;30.15;97654.75;4898285;29;20048;-68
2022/04/15 09:52:03;;;;;;;28.98;10.85;;;;;;;33.82;31.59;97644.13;4911229;29;20056;-69
2022/04/15 09:54:54;;;;;;;61.30;17.40;;;;;;;33.86;31.06;97647.16;4903538;29;20056;-67
2022/04/15 09:57:39;;;;;;;34.00;11.95;;;;;;;33.85;29.48;97640.16;4904841;29;20838;-66
2022/04/15 10:00:29;;;;;;;29.38;11.80;;;;;;;33.82;29.04;97640.63;4905191;29;20253;-66
2022/04/15 10:03:25;;;;;;;31.90;11.82;;;;;;;33.81;29.94;97634.47;4914774;29;20051;-67
2022/04/15 10:06:09;;;;;;;31.17;11.43;;;;;;;33.79;32.48;97623.97;4917183;29;20135;-68
2022/04/15 10:09:22;;;;;;;31.33;11.48;;;;;;;33.70;32.46;97621.78;4917427;29;20589;-65
2022/04/15 10:11:57;;;;;;;44.75;13.10;;;;;;;33.71;32.88;97621.56;4909368;29;20512;-67
2022/04/15 10:14:47;;;;;;;27.95;10.40;;;;;;;33.64;31.15;97618.13;4909741;29;20565;-67
2022/04/15 10:17:36;;;;;;;27.80;10.63;;;;;;;33.64;29.96;97618.13;4902584;29;20052;-67
2022/04/15 10:20:18;;;;;;;29.15;11.23;;;;;;;33.68;30.96;97611.31;4909489;29;20063;-67
2022/04/15 10:23:08;;;;;;;25.88;10.25;;;;;;;33.67;31.20;97609.69;4907541;29;20055;-65
2022/04/15 10:26:01;;;;;;;22.80;10.38;;;;;;;33.63;33.94;97602.31;4905623;29;20048;-66
2022/04/15 10:28:53;;;;;;;28.85;10.15;;;;;;;33.58;31.07;97600.31;4900702;29;20488;-65
2022/04/15 10:31:42;;;;;;;29.55;10.32;;;;;;;33.50;31.22;97608.59;4907492;29;20044;-66
2022/04/15 10:34:31;;;;;;;23.77;9.90;;;;;;;33.48;29.97;97599.16;4908035;29;20055;-65
2022/04/15 10:37:14;;;;;;;23.33;9.55;;;;;;;33.43;32.15;97597.16;4908223;29;20048;-66
2022/04/15 10:40:03;;;;;;;31.75;11.15;;;;;;;33.36;28.50;97599.88;4571201;29;9999985;-67
2022/04/15 10:42:44;;;;;;;23.52;10.38;;;;;;;33.35;29.58;97597.41;4913627;29;20511;-67
2022/04/15 10:45:36;;;;;;;32.22;11.32;;;;;;;33.30;29.53;97598.03;4909860;29;20059;-67
2022/04/15 10:48:38;;;;;;;32.63;10.90;;;;;;;33.34;30.05;97588.59;4911537;29;20052;-67
2022/04/15 10:51:31;;;;;;;24.88;10.20;;;;;;;33.26;31.34;97585.34;4894925;29;20048;-67
2022/04/15 10:54:51;;;;;;;23.77;9.57;;;;;;;33.27;30.04;97584.31;4918131;29;20048;-68
2022/04/15 10:57:46;;;;;;;27.60;9.70;;;;;;;33.24;31.19;97588.25;4898222;29;20131;-67
2022/04/15 11:03:38;;;;;;;28.75;8.48;;;;;;;33.16;30.97;97579.63;4912250;29;20358;-67
2022/04/15 11:06:28;;;;;;;30.65;9.55;;;;;;;33.07;30.68;97579.09;4907936;29;20052;-68
2022/04/15 11:09:20;;;;;;;28.17;11.65;;;;;;;33.05;30.09;97581.97;4907424;29;20052;-68
2022/04/15 11:12:17;;;;;;;24.55;9.70;;;;;;;33.00;31.32;97573.78;4907979;29;20079;-65
2022/04/15 11:14:52;;;;;;;26.35;8.00;;;;;;;32.97;29.43;97579.53;4908999;29;20480;-68
2022/04/15 11:17:55;;;;;;;23.38;9.70;;;;;;;32.94;28.44;97582.66;4909610;29;20116;-69
2022/04/15 11:20:31;;;;;;;36.78;8.90;;;;;;;32.97;29.36;97576.88;4909697;29;20163;-68
2022/04/15 11:23:20;;;;;;;47.60;10.23;;;;;;;32.92;29.90;97579.38;4911146;29;20060;-68
2022/04/15 11:26:03;;;;;;;32.95;12.20;;;;;;;32.83;29.67;97579.84;4911482;29;20056;-67
2022/04/15 11:28:54;;;;;;;27.80;10.02;;;;;;;32.75;31.69;97577.44;4909962;29;20514;-69
2022/04/15 11:31:46;;;;;;;24.17;9.82;;;;;;;32.67;32.19;97579.28;4908062;29;20087;-67
2022/04/15 11:34:35;;;;;;;25.35;9.90;;;;;;;32.61;32.33;97580.16;4911492;29;20058;-65
2022/04/15 11:37:24;;;;;;;22.02;10.50;;;;;;;32.54;33.42;97571.34;4909003;29;20108;-67
2022/04/15 11:40:14;;;;;;;19.83;8.57;;;;;;;32.49;34.06;97567.66;4906299;29;20144;-67
2022/04/15 11:43:16;;;;;;;23.35;8.07;;;;;;;32.43;31.26;97568.53;4910180;29;20468;-69
2022/04/15 11:45:52;;;;;;;28.08;10.40;;;;;;;32.37;30.84;97570.19;4905816;29;20041;-64
2022/04/15 11:48:40;;;;;;;29.70;11.30;;;;;;;32.34;31.93;97572.47;4904020;29;20111;-68
2022/04/15 11:51:23;;;;;;;32.97;9.85;;;;;;;32.34;30.18;97575.94;4899055;29;20808;-70
2022/04/15 11:54:12;;;;;;;21.98;9.80;;;;;;;32.24;32.19;97578.25;4908112;29;20798;-71
2022/04/15 11:56:57;;;;;;;18.95;7.43;;;;;;;32.14;30.97;97577.84;4890562;29;20496;-70
2022/04/15 11:59:47;;;;;;;15.60;7.45;;;;;;;32.09;31.80;97583.78;4885484;29;20507;-68
2022/04/15 12:02:29;;;;;;;15.75;6.35;;;;;;;32.04;33.67;97570.28;4909099;29;20056;-69
2022/04/15 12:05:17;;;;;;;27.95;8.68;;;;;;;31.99;32.33;97574.59;4910205;29;20052;-69
2022/04/15 12:08:00;;;;;;;20.35;6.97;;;;;;;31.98;34.51;97571.13;4910222;29;20056;-68
2022/04/15 12:10:49;;;;;;;21.40;6.70;;;;;;;31.86;32.84;97570.09;4904781;29;20048;-67
2022/04/15 12:13:40;;;;;;;15.90;6.68;;;;;;;31.78;35.79;97573.00;4891124;29;20124;-71
2022/04/15 12:16:22;;;;;;;17.88;5.93;;;;;;;31.66;35.35;97574.66;4905748;29;20048;-68
2022/04/15 12:19:12;;;;;;;13.15;5.78;;;;;;;31.56;35.67;97578.53;4907706;29;20108;-68
2022/04/15 12:22:01;;;;;;;18.20;5.82;;;;;;;31.49;34.15;97571.56;4908918;29;20559;-70
2022/04/15 12:24:43;;;;;;;20.38;6.55;;;;;;;31.44;34.00;97569.53;4908805;29;20057;-71
2022/04/15 12:27:44;;;;;;;21.55;5.75;;;;;;;31.46;35.27;97572.78;4888104;29;20052;-70
2022/04/15 12:30:39;;;;;;;17.13;5.47;;;;;;;31.31;38.80;97569.50;4891411;29;20722;-70
2022/04/15 12:33:27;;;;;;;17.23;5.75;;;;;;;31.21;35.94;97573.63;4907904;29;20052;-71
2022/04/15 12:36:11;;;;;;;15.68;5.72;;;;;;;31.11;37.70;97574.84;4913702;29;20043;-69
2022/04/15 12:39:06;;;;;;;17.42;6.05;;;;;;;31.00;38.39;97572.72;4907673;29;20060;-68
2022/04/15 12:41:55;;;;;;;18.10;6.38;;;;;;;30.94;38.04;97576.22;4908334;29;20064;-67
2022/04/15 12:44:52;;;;;;;22.70;5.70;;;;;;;30.84;39.34;97577.59;4904017;29;20060;-70
2022/04/15 12:47:34;;;;;;;20.23;5.82;;;;;;;30.73;40.23;97571.84;4902043;29;20071;-68
2022/04/15 12:50:29;;;;;;;16.95;5.78;;;;;;;30.62;40.50;97583.09;4906492;29;20048;-69
2022/04/15 12:53:26;;;;;;;19.73;6.15;;;;;;;30.50;44.09;97579.31;4907362;29;20131;-69
2022/04/15 12:56:14;;;;;;;26.60;8.27;;;;;;;30.38;39.67;97579.06;4907817;29;20064;-68
2022/04/15 12:59:02;;;;;;;29.35;8.70;;;;;;;30.31;41.25;97586.19;4904896;29;20295;-68
2022/04/15 13:01:50;;;;;;;29.83;10.43;;;;;;;30.25;41.10;97579.00;4901733;29;20064;-67